sensor_id;sensor_type;location;lat;lon;timestamp;pressure;altitude;pressure_sealevel;temperature;humidity
21234;BME280;10774;42.178;26.578;2023-04-26T00:00:42;99080.84;;;13.25;100.00
21234;BME280;10774;42.178;26.578;2023-04-26T00:03:08;99068.00;;;13.18;100.00
21234;BME280;10774;42.178;26.578;2023-04-26T00:05:33;99071.13;;;13.13;100.00
21234;BME280;10774;42.178;26.578;2023-04-26T00:07:59;99083.41;;;12.75;100.00
21234;BME280;10774;42.178;26.578;2023-04-26T00:10:25;99086.34;;;12.93;100.00
21234;BME280;10774;42.178;26.578;2023-04-26T00:12:51;99079.28;;;13.02;100.00
21234;BME280;10774;42.178;26.578;2023-04-26T00:15:17;99078.97;;;12.95;100.00
21234;BME280;10774;42.178;26.578;2023-04-26T00:17:42;99089.50;;;12.98;100.00
21234;BME280;10774;42.178;26.578;2023-04-26T00:20:08;99093.50;;;13.04;100.00
21234;BME280;10774;42.178;26.578;2023-04-26T00:22:36;99064.97;;;12.71;100.00
21234;BME280;10774;42.178;26.578;2023-04-26T00:25:01;99077.09;;;12.65;100.00
21234;BME280;10774;42.178;26.578;2023-04-26T00:27:27;99081.22;;;12.90;100.00
21234;BME280;10774;42.178;26.578;2023-04-26T00:29:52;99075.34;;;13.06;100.00
21234;BME280;10774;42.178;26.578;2023-04-26T00:32:18;99070.50;;;13.00;100.00
21234;BME280;10774;42.178;26.578;2023-04-26T00:34:43;99059.47;;;13.03;100.00
21234;BME280;10774;42.178;26.578;2023-04-26T00:37:08;99031.88;;;12.90;100.00
21234;BME280;10774;42.178;26.578;2023-04-26T00:39:34;99049.97;;;13.08;100.00
21234;BME280;10774;42.178;26.578;2023-04-26T00:41:59;99056.22;;;13.09;100.00
21234;BME280;10774;42.178;26.578;2023-04-26T00:44:25;99057.13;;;12.89;100.00
21234;BME280;10774;42.178;26.578;2023-04-26T00:46:52;99057.16;;;12.98;100.00
21234;BME280;10774;42.178;26.578;2023-04-26T00:49:19;99058.31;;;13.05;100.00
21234;BME280;10774;42.178;26.578;2023-04-26T00:51:47;99046.94;;;13.02;100.00
21234;BME280;10774;42.178;26.578;2023-04-26T00:54:13;99058.47;;;13.04;100.00
21234;BME280;10774;42.178;26.578;2023-04-26T00:56:41;99058.19;;;13.07;100.00
21234;BME280;10774;42.178;26.578;2023-04-26T00:59:06;99063.06;;;13.13;100.00
21234;BME280;10774;42.178;26.578;2023-04-26T01:04:08;99051.91;;;12.97;100.00
21234;BME280;10774;42.178;26.578;2023-04-26T01:06:34;99049.19;;;12.97;100.00
21234;BME280;10774;42.178;26.578;2023-04-26T01:09:04;99060.34;;;13.13;100.00
21234;BME280;10774;42.178;26.578;2023-04-26T01:11:36;99063.25;;;13.21;100.00
21234;BME280;10774;42.178;26.578;2023-04-26T01:14:03;99069.94;;;13.06;100.00
21234;BME280;10774;42.178;26.578;2023-04-26T01:16:29;99053.09;;;13.04;100.00
21234;BME280;10774;42.178;26.578;2023-04-26T01:18:55;99054.06;;;13.03;100.00
21234;BME280;10774;42.178;26.578;2023-04-26T01:21:22;99050.94;;;13.07;100.00
21234;BME280;10774;42.178;26.578;2023-04-26T01:23:51;99054.78;;;12.74;100.00
21234;BME280;10774;42.178;26.578;2023-04-26T01:26:17;99039.63;;;12.32;100.00
21234;BME280;10774;42.178;26.578;2023-04-26T01:28:43;99051.25;;;12.53;100.00
21234;BME280;10774;42.178;26.578;2023-04-26T01:31:10;99048.31;;;12.56;100.00
21234;BME280;10774;42.178;26.578;2023-04-26T01:33:35;99049.94;;;12.68;100.00
21234;BME280;10774;42.178;26.578;2023-04-26T01:36:01;99055.63;;;12.75;100.00
21234;BME280;10774;42.178;26.578;2023-04-26T01:38:26;99043.38;;;12.61;100.00
21234;BME280;10774;42.178;26.578;2023-04-26T01:40:52;99046.34;;;12.89;100.00
21234;BME280;10774;42.178;26.578;2023-04-26T01:43:17;99045.00;;;13.04;100.00
21234;BME280;10774;42.178;26.578;2023-04-26T01:45:48;99035.13;;;12.83;100.00
21234;BME280;10774;42.178;26.578;2023-04-26T01:48:13;99027.22;;;12.61;100.00
21234;BME280;10774;42.178;26.578;2023-04-26T01:50:39;99033.50;;;12.71;100.00
21234;BME280;10774;42.178;26.578;2023-04-26T01:53:04;99019.47;;;12.68;100.00
21234;BME280;10774;42.178;26.578;2023-04-26T01:55:30;99029.34;;;12.88;100.00
21234;BME280;10774;42.178;26.578;2023-04-26T01:57:55;99018.53;;;12.78;100.00
21234;BME280;10774;42.178;26.578;2023-04-26T02:00:21;99014.78;;;12.70;100.00
21234;BME280;10774;42.178;26.578;2023-04-26T02:02:46;99033.28;;;12.84;100.00
21234;BME280;10774;42.178;26.578;2023-04-26T02:05:12;98990.16;;;12.74;100.00
21234;BME280;10774;42.178;26.578;2023-04-26T02:07:37;99001.16;;;12.92;100.00
21234;BME280;10774;42.178;26.578;2023-04-26T02:10:03;99022.69;;;12.92;100.00
21234;BME280;10774;42.178;26.578;2023-04-26T02:12:28;99024.56;;;13.01;100.00
21234;BME280;10774;42.178;26.578;2023-04-26T02:14:54;99014.34;;;12.95;100.00
21234;BME280;10774;42.178;26.578;2023-04-26T02:17:19;99013.19;;;12.88;100.00
21234;BME280;10774;42.178;26.578;2023-04-26T02:19:45;99025.50;;;12.91;100.00
21234;BME280;10774;42.178;26.578;2023-04-26T02:22:11;99017.44;;;12.91;100.00
21234;BME280;10774;42.178;26.578;2023-04-26T02:24:37;99023.06;;;12.78;100.00
21234;BME280;10774;42.178;26.578;2023-04-26T02:27:03;99023.59;;;12.72;100.00
21234;BME280;10774;42.178;26.578;2023-04-26T02:29:29;99015.72;;;12.90;100.00
21234;BME280;10774;42.178;26.578;2023-04-26T02:31:56;99014.19;;;12.97;100.00
21234;BME280;10774;42.178;26.578;2023-04-26T02:34:22;99014.34;;;12.44;100.00
21234;BME280;10774;42.178;26.578;2023-04-26T02:36:47;99030.88;;;12.60;100.00
21234;BME280;10774;42.178;26.578;2023-04-26T02:39:13;99023.25;;;12.65;100.00
21234;BME280;10774;42.178;26.578;2023-04-26T02:41:38;99008.84;;;12.66;100.00
21234;BME280;10774;42.178;26.578;2023-04-26T02:44:04;99010.25;;;12.70;100.00
21234;BME280;10774;42.178;26.578;2023-04-26T02:46:29;99011.88;;;12.82;100.00
21234;BME280;10774;42.178;26.578;2023-04-26T02:48:54;99030.63;;;12.94;100.00
21234;BME280;10774;42.178;26.578;2023-04-26T02:51:20;99018.31;;;13.01;100.00
21234;BME280;10774;42.178;26.578;2023-04-26T02:53:45;99024.22;;;12.85;100.00
21234;BME280;10774;42.178;26.578;2023-04-26T02:56:11;99024.56;;;13.01;100.00
21234;BME280;10774;42.178;26.578;2023-04-26T02:58:36;99009.19;;;12.82;100.00
21234;BME280;10774;42.178;26.578;2023-04-26T03:01:02;99017.53;;;12.79;100.00
21234;BME280;10774;42.178;26.578;2023-04-26T03:03:28;99023.31;;;12.75;100.00
21234;BME280;10774;42.178;26.578;2023-04-26T03:05:54;99040.22;;;12.56;100.00
21234;BME280;10774;42.178;26.578;2023-04-26T03:08:20;99030.16;;;12.58;100.00
21234;BME280;10774;42.178;26.578;2023-04-26T03:10:45;99034.25;;;12.52;100.00
21234;BME280;10774;42.178;26.578;2023-04-26T03:13:11;99034.25;;;12.52;100.00
21234;BME280;10774;42.178;26.578;2023-04-26T03:15:36;99031.41;;;12.54;100.00
21234;BME280;10774;42.178;26.578;2023-04-26T03:18:02;99029.13;;;12.28;100.00
21234;BME280;10774;42.178;26.578;2023-04-26T03:20:28;99025.78;;;12.15;100.00
21234;BME280;10774;42.178;26.578;2023-04-26T03:22:53;99047.69;;;11.78;100.00
21234;BME280;10774;42.178;26.578;2023-04-26T03:25:19;99042.16;;;11.91;100.00
21234;BME280;10774;42.178;26.578;2023-04-26T03:27:44;99047.66;;;11.90;100.00
21234;BME280;10774;42.178;26.578;2023-04-26T03:30:10;99068.31;;;12.21;100.00
21234;BME280;10774;42.178;26.578;2023-04-26T03:32:37;99060.78;;;12.36;100.00
21234;BME280;10774;42.178;26.578;2023-04-26T03:35:03;99080.06;;;12.62;100.00
21234;BME280;10774;42.178;26.578;2023-04-26T03:37:28;99060.38;;;12.62;100.00
21234;BME280;10774;42.178;26.578;2023-04-26T03:39:54;99075.91;;;12.79;100.00
21234;BME280;10774;42.178;26.578;2023-04-26T03:42:19;99068.69;;;12.79;100.00
21234;BME280;10774;42.178;26.578;2023-04-26T03:44:45;99068.97;;;12.76;100.00
21234;BME280;10774;42.178;26.578;2023-04-26T03:47:11;99059.59;;;12.71;100.00
21234;BME280;10774;42.178;26.578;2023-04-26T03:49:36;99069.22;;;12.73;100.00
21234;BME280;10774;42.178;26.578;2023-04-26T03:52:02;99065.03;;;12.39;100.00
21234;BME280;10774;42.178;26.578;2023-04-26T03:54:28;99069.00;;;12.35;100.00
21234;BME280;10774;42.178;26.578;2023-04-26T03:56:53;99065.69;;;12.52;100.00
21234;BME280;10774;42.178;26.578;2023-04-26T03:59:19;99056.09;;;12.59;100.00
21234;BME280;10774;42.178;26.578;2023-04-26T04:01:44;99054.41;;;12.58;100.00
21234;BME280;10774;42.178;26.578;2023-04-26T04:04:10;99074.66;;;12.83;100.00
21234;BME280;10774;42.178;26.578;2023-04-26T04:06:35;99064.03;;;12.81;100.00
21234;BME280;10774;42.178;26.578;2023-04-26T04:09:02;99053.97;;;12.83;100.00
21234;BME280;10774;42.178;26.578;2023-04-26T04:11:29;99050.28;;;12.85;100.00
21234;BME280;10774;42.178;26.578;2023-04-26T04:13:55;99054.06;;;13.03;100.00
21234;BME280;10774;42.178;26.578;2023-04-26T04:16:20;99058.63;;;13.12;100.00
21234;BME280;10774;42.178;26.578;2023-04-26T04:18:45;99058.09;;;13.18;100.00
21234;BME280;10774;42.178;26.578;2023-04-26T04:21:11;99061.25;;;13.23;100.00
21234;BME280;10774;42.178;26.578;2023-04-26T04:23:36;99037.91;;;13.03;100.00
21234;BME280;10774;42.178;26.578;2023-04-26T04:26:02;99069.16;;;13.15;100.00
21234;BME280;10774;42.178;26.578;2023-04-26T04:28:27;99059.91;;;13.18;100.00
21234;BME280;10774;42.178;26.578;2023-04-26T04:30:54;99065.84;;;13.12;100.00
21234;BME280;10774;42.178;26.578;2023-04-26T04:33:21;99073.88;;;12.92;100.00
21234;BME280;10774;42.178;26.578;2023-04-26T04:35:46;99075.09;;;13.09;100.00
21234;BME280;10774;42.178;26.578;2023-04-26T04:38:11;99063.13;;;13.02;100.00
21234;BME280;10774;42.178;26.578;2023-04-26T04:40:37;99073.19;;;13.00;100.00
21234;BME280;10774;42.178;26.578;2023-04-26T04:43:02;99076.31;;;12.74;100.00
21234;BME280;10774;42.178;26.578;2023-04-26T04:45:28;99068.59;;;12.18;100.00
21234;BME280;10774;42.178;26.578;2023-04-26T04:47:53;99087.41;;;12.18;100.00
21234;BME280;10774;42.178;26.578;2023-04-26T04:50:19;99073.69;;;12.21;100.00
21234;BME280;10774;42.178;26.578;2023-04-26T04:52:45;99091.44;;;12.45;100.00
21234;BME280;10774;42.178;26.578;2023-04-26T04:55:11;99096.94;;;12.64;100.00
21234;BME280;10774;42.178;26.578;2023-04-26T04:57:36;99083.41;;;12.75;100.00
21234;BME280;10774;42.178;26.578;2023-04-26T05:00:03;99072.19;;;12.49;100.00
21234;BME280;10774;42.178;26.578;2023-04-26T05:02:35;99075.94;;;12.58;100.00
21234;BME280;10774;42.178;26.578;2023-04-26T05:05:02;99080.69;;;12.45;100.00
21234;BME280;10774;42.178;26.578;2023-04-26T05:07:29;99073.56;;;12.44;100.00
21234;BME280;10774;42.178;26.578;2023-04-26T05:09:56;99081.56;;;12.13;100.00
21234;BME280;10774;42.178;26.578;2023-04-26T05:12:21;99094.59;;;11.97;100.00
21234;BME280;10774;42.178;26.578;2023-04-26T05:14:47;99082.84;;;11.98;100.00
21234;BME280;10774;42.178;26.578;2023-04-26T05:17:12;99076.38;;;12.21;100.00
21234;BME280;10774;42.178;26.578;2023-04-26T05:19:37;99086.75;;;12.26;100.00
21234;BME280;10774;42.178;26.578;2023-04-26T05:22:03;99090.00;;;12.41;100.00
21234;BME280;10774;42.178;26.578;2023-04-26T05:24:29;99097.78;;;12.44;100.00
21234;BME280;10774;42.178;26.578;2023-04-26T05:26:58;99103.84;;;12.57;100.00
21234;BME280;10774;42.178;26.578;2023-04-26T05:29:27;99090.84;;;12.62;100.00
21234;BME280;10774;42.178;26.578;2023-04-26T05:31:53;99087.81;;;12.76;100.00
21234;BME280;10774;42.178;26.578;2023-04-26T05:34:18;99087.69;;;12.78;100.00
21234;BME280;10774;42.178;26.578;2023-04-26T05:36:44;99088.44;;;12.90;100.00
21234;BME280;10774;42.178;26.578;2023-04-26T05:39:09;99095.78;;;13.08;100.00
21234;BME280;10774;42.178;26.578;2023-04-26T05:41:36;99098.59;;;13.07;100.00
21234;BME280;10774;42.178;26.578;2023-04-26T05:44:02;99086.81;;;12.98;100.00
21234;BME280;10774;42.178;26.578;2023-04-26T05:46:27;99105.41;;;13.11;100.00
21234;BME280;10774;42.178;26.578;2023-04-26T05:48:53;99106.94;;;13.25;100.00
21234;BME280;10774;42.178;26.578;2023-04-26T05:51:22;99115.78;;;13.37;100.00
21234;BME280;10774;42.178;26.578;2023-04-26T05:53:48;99121.44;;;13.33;100.00
21234;BME280;10774;42.178;26.578;2023-04-26T05:56:13;99120.91;;;13.40;100.00
21234;BME280;10774;42.178;26.578;2023-04-26T05:58:38;99125.25;;;13.31;100.00
21234;BME280;10774;42.178;26.578;2023-04-26T06:01:04;99121.44;;;13.33;100.00
21234;BME280;10774;42.178;26.578;2023-04-26T06:03:30;99114.00;;;12.74;100.00
21234;BME280;10774;42.178;26.578;2023-04-26T06:05:55;99104.38;;;12.72;100.00
21234;BME280;10774;42.178;26.578;2023-04-26T06:08:21;99099.00;;;11.75;100.00
21234;BME280;10774;42.178;26.578;2023-04-26T06:10:46;99124.59;;;11.59;100.00
21234;BME280;10774;42.178;26.578;2023-04-26T06:13:12;99130.56;;;11.62;100.00
21234;BME280;10774;42.178;26.578;2023-04-26T06:15:37;99122.28;;;11.65;100.00
21234;BME280;10774;42.178;26.578;2023-04-26T06:18:04;99132.53;;;11.83;100.00
21234;BME280;10774;42.178;26.578;2023-04-26T06:20:30;99129.63;;;11.52;100.00
21234;BME280;10774;42.178;26.578;2023-04-26T06:22:56;99122.34;;;11.75;100.00
21234;BME280;10774;42.178;26.578;2023-04-26T06:25:21;99129.56;;;11.97;100.00
21234;BME280;10774;42.178;26.578;2023-04-26T06:27:47;99135.69;;;11.88;100.00
21234;BME280;10774;42.178;26.578;2023-04-26T06:30:12;99154.50;;;11.76;100.00
21234;BME280;10774;42.178;26.578;2023-04-26T06:32:40;99134.25;;;11.39;100.00
21234;BME280;10774;42.178;26.578;2023-04-26T06:35:05;99118.84;;;11.52;100.00
21234;BME280;10774;42.178;26.578;2023-04-26T06:37:31;99133.75;;;11.67;100.00
21234;BME280;10774;42.178;26.578;2023-04-26T06:39:56;99135.22;;;11.71;100.00
21234;BME280;10774;42.178;26.578;2023-04-26T06:42:22;99136.16;;;11.70;100.00
21234;BME280;10774;42.178;26.578;2023-04-26T06:44:47;99141.09;;;11.65;100.00
21234;BME280;10774;42.178;26.578;2023-04-26T06:47:13;99145.13;;;11.71;100.00
21234;BME280;10774;42.178;26.578;2023-04-26T06:49:38;99162.22;;;11.81;100.00
21234;BME280;10774;42.178;26.578;2023-04-26T06:52:05;99168.53;;;11.80;100.00
21234;BME280;10774;42.178;26.578;2023-04-26T06:54:31;99163.03;;;12.04;100.00
21234;BME280;10774;42.178;26.578;2023-04-26T06:56:57;99148.28;;;11.87;100.00
21234;BME280;10774;42.178;26.578;2023-04-26T06:59:22;99153.19;;;11.82;100.00
21234;BME280;10774;42.178;26.578;2023-04-26T07:01:48;99148.63;;;11.94;100.00
21234;BME280;10774;42.178;26.578;2023-04-26T07:04:14;99158.97;;;12.42;100.00
21234;BME280;10774;42.178;26.578;2023-04-26T07:06:41;99169.97;;;12.50;100.00
21234;BME280;10774;42.178;26.578;2023-04-26T07:09:07;99167.22;;;11.97;100.00
21234;BME280;10774;42.178;26.578;2023-04-26T07:11:32;99166.94;;;12.00;100.00
21234;BME280;10774;42.178;26.578;2023-04-26T07:13:58;99170.34;;;12.02;100.00
21234;BME280;10774;42.178;26.578;2023-04-26T07:16:23;99184.28;;;12.07;100.00
21234;BME280;10774;42.178;26.578;2023-04-26T07:18:49;99191.63;;;12.05;100.00
21234;BME280;10774;42.178;26.578;2023-04-26T07:21:15;99173.78;;;12.04;100.00
21234;BME280;10774;42.178;26.578;2023-04-26T07:23:41;99168.03;;;12.09;100.00
21234;BME280;10774;42.178;26.578;2023-04-26T07:26:09;99177.56;;;12.45;100.00
21234;BME280;10774;42.178;26.578;2023-04-26T07:28:35;99170.88;;;12.60;100.00
21234;BME280;10774;42.178;26.578;2023-04-26T07:31:00;99164.81;;;12.47;100.00
21234;BME280;10774;42.178;26.578;2023-04-26T07:33:26;99173.53;;;12.71;100.00
21234;BME280;10774;42.178;26.578;2023-04-26T07:35:56;99168.53;;;12.88;100.00
21234;BME280;10774;42.178;26.578;2023-04-26T07:38:22;99163.78;;;13.01;100.00
21234;BME280;10774;42.178;26.578;2023-04-26T07:40:48;99161.59;;;13.16;100.00
21234;BME280;10774;42.178;26.578;2023-04-26T07:43:14;99160.09;;;13.53;100.00
21234;BME280;10774;42.178;26.578;2023-04-26T07:45:40;99148.53;;;13.11;100.00
21234;BME280;10774;42.178;26.578;2023-04-26T07:48:06;99144.09;;;13.21;100.00
21234;BME280;10774;42.178;26.578;2023-04-26T07:50:31;99162.63;;;13.45;100.00
21234;BME280;10774;42.178;26.578;2023-04-26T07:52:57;99159.06;;;13.14;100.00
21234;BME280;10774;42.178;26.578;2023-04-26T07:55:22;99152.28;;;13.20;100.00
21234;BME280;10774;42.178;26.578;2023-04-26T07:57:48;99158.31;;;13.33;100.00
21234;BME280;10774;42.178;26.578;2023-04-26T08:00:13;99156.56;;;13.22;100.00
21234;BME280;10774;42.178;26.578;2023-04-26T08:02:41;99158.66;;;13.40;100.00
21234;BME280;10774;42.178;26.578;2023-04-26T08:05:07;99148.75;;;14.00;100.00
21234;BME280;10774;42.178;26.578;2023-04-26T08:07:33;99131.25;;;13.84;100.00
21234;BME280;10774;42.178;26.578;2023-04-26T08:09:58;99140.13;;;14.25;100.00
21234;BME280;10774;42.178;26.578;2023-04-26T08:12:24;99143.38;;;14.09;100.00
21234;BME280;10774;42.178;26.578;2023-04-26T08:14:49;99125.91;;;14.13;100.00
21234;BME280;10774;42.178;26.578;2023-04-26T08:17:15;99143.09;;;14.03;100.00
21234;BME280;10774;42.178;26.578;2023-04-26T08:19:40;99146.53;;;13.74;100.00
21234;BME280;10774;42.178;26.578;2023-04-26T08:22:06;99144.59;;;13.86;100.00
21234;BME280;10774;42.178;26.578;2023-04-26T08:24:31;99154.78;;;14.61;100.00
21234;BME280;10774;42.178;26.578;2023-04-26T08:26:57;99147.63;;;14.12;100.00
21234;BME280;10774;42.178;26.578;2023-04-26T08:29:23;99156.13;;;13.98;100.00
21234;BME280;10774;42.178;26.578;2023-04-26T08:31:49;99147.94;;;13.69;100.00
21234;BME280;10774;42.178;26.578;2023-04-26T08:34:14;99157.66;;;13.91;100.00
21234;BME280;10774;42.178;26.578;2023-04-26T08:36:40;99154.03;;;14.30;100.00
21234;BME280;10774;42.178;26.578;2023-04-26T08:39:06;99153.31;;;14.28;100.00
21234;BME280;10774;42.178;26.578;2023-04-26T08:41:40;99151.63;;;15.32;100.00
21234;BME280;10774;42.178;26.578;2023-04-26T08:44:07;99131.22;;;15.85;100.00
21234;BME280;10774;42.178;26.578;2023-04-26T08:46:43;99133.72;;;15.31;100.00
21234;BME280;10774;42.178;26.578;2023-04-26T08:51:55;99125.34;;;15.62;100.00
21234;BME280;10774;42.178;26.578;2023-04-26T08:54:22;99140.34;;;15.84;100.00
21234;BME280;10774;42.178;26.578;2023-04-26T08:56:50;99141.41;;;15.26;100.00
21234;BME280;10774;42.178;26.578;2023-04-26T08:59:16;99140.47;;;16.10;100.00
21234;BME280;10774;42.178;26.578;2023-04-26T09:01:43;99141.31;;;17.08;100.00
21234;BME280;10774;42.178;26.578;2023-04-26T09:04:08;99133.09;;;17.77;100.00
21234;BME280;10774;42.178;26.578;2023-04-26T09:06:34;99134.03;;;18.19;100.00
21234;BME280;10774;42.178;26.578;2023-04-26T09:09:02;99121.84;;;17.38;100.00
21234;BME280;10774;42.178;26.578;2023-04-26T09:11:51;99119.94;;;18.07;100.00
21234;BME280;10774;42.178;26.578;2023-04-26T09:14:16;99098.94;;;18.25;100.00
21234;BME280;10774;42.178;26.578;2023-04-26T09:16:42;99099.44;;;18.45;100.00
21234;BME280;10774;42.178;26.578;2023-04-26T09:19:07;99101.84;;;18.40;100.00
21234;BME280;10774;42.178;26.578;2023-04-26T09:21:34;99097.75;;;18.44;100.00
21234;BME280;10774;42.178;26.578;2023-04-26T09:24:05;99100.31;;;18.70;100.00
21234;BME280;10774;42.178;26.578;2023-04-26T09:26:30;99101.44;;;19.08;98.57
21234;BME280;10774;42.178;26.578;2023-04-26T09:29:16;99096.59;;;19.51;97.18
21234;BME280;10774;42.178;26.578;2023-04-26T09:31:42;99096.78;;;19.42;97.87
21234;BME280;10774;42.178;26.578;2023-04-26T09:34:10;99090.75;;;19.15;95.60
21234;BME280;10774;42.178;26.578;2023-04-26T09:37:05;99089.78;;;19.47;95.55
21234;BME280;10774;42.178;26.578;2023-04-26T09:39:38;99077.84;;;19.56;92.26
21234;BME280;10774;42.178;26.578;2023-04-26T09:42:05;99083.59;;;19.70;94.05
21234;BME280;10774;42.178;26.578;2023-04-26T09:44:31;99081.91;;;20.23;91.12
21234;BME280;10774;42.178;26.578;2023-04-26T09:47:02;99063.28;;;20.57;90.14
21234;BME280;10774;42.178;26.578;2023-04-26T09:49:41;99064.75;;;20.83;85.33
21234;BME280;10774;42.178;26.578;2023-04-26T09:52:07;99045.88;;;21.11;78.52
21234;BME280;10774;42.178;26.578;2023-04-26T09:57:04;99059.44;;;21.04;74.84
21234;BME280;10774;42.178;26.578;2023-04-26T09:59:43;99054.88;;;20.82;76.79
21234;BME280;10774;42.178;26.578;2023-04-26T10:02:24;99063.50;;;21.38;73.51
21234;BME280;10774;42.178;26.578;2023-04-26T10:04:52;99055.47;;;21.51;71.89
21234;BME280;10774;42.178;26.578;2023-04-26T10:07:20;99047.97;;;21.53;67.63
21234;BME280;10774;42.178;26.578;2023-04-26T10:09:46;99052.44;;;21.76;67.11
21234;BME280;10774;42.178;26.578;2023-04-26T10:12:13;99029.97;;;21.44;66.32
21234;BME280;10774;42.178;26.578;2023-04-26T10:14:40;99035.06;;;21.18;65.49
21234;BME280;10774;42.178;26.578;2023-04-26T10:17:06;99033.91;;;20.97;68.36
21234;BME280;10774;42.178;26.578;2023-04-26T10:19:33;99028.03;;;20.71;68.55
21234;BME280;10774;42.178;26.578;2023-04-26T10:22:04;99026.00;;;20.73;67.60
21234;BME280;10774;42.178;26.578;2023-04-26T10:24:31;99023.34;;;20.65;69.10
21234;BME280;10774;42.178;26.578;2023-04-26T10:26:56;99021.25;;;20.67;71.06
21234;BME280;10774;42.178;26.578;2023-04-26T10:29:24;99008.56;;;20.59;68.96
21234;BME280;10774;42.178;26.578;2023-04-26T10:34:35;99008.22;;;20.77;68.13
21234;BME280;10774;42.178;26.578;2023-04-26T10:37:15;99006.44;;;21.43;67.53
21234;BME280;10774;42.178;26.578;2023-04-26T10:39:42;99002.44;;;21.60;63.25
21234;BME280;10774;42.178;26.578;2023-04-26T10:42:43;98998.63;;;21.25;63.94
21234;BME280;10774;42.178;26.578;2023-04-26T10:45:27;99017.00;;;21.46;61.57
21234;BME280;10774;42.178;26.578;2023-04-26T10:59:07;98997.28;;;21.87;62.28
21234;BME280;10774;42.178;26.578;2023-04-26T11:01:33;98999.16;;;22.23;62.19
21234;BME280;10774;42.178;26.578;2023-04-26T11:06:24;98989.41;;;22.91;55.52
21234;BME280;10774;42.178;26.578;2023-04-26T11:08:51;98986.59;;;22.56;57.18
21234;BME280;10774;42.178;26.578;2023-04-26T11:11:17;99006.22;;;22.88;55.87
21234;BME280;10774;42.178;26.578;2023-04-26T11:13:46;98997.66;;;22.69;56.27
21234;BME280;10774;42.178;26.578;2023-04-26T11:16:15;99007.22;;;22.09;58.81
21234;BME280;10774;42.178;26.578;2023-04-26T11:18:43;98997.03;;;22.46;58.17
21234;BME280;10774;42.178;26.578;2023-04-26T11:21:09;98994.88;;;21.11;57.31
21234;BME280;10774;42.178;26.578;2023-04-26T11:23:35;98993.84;;;21.12;56.68
21234;BME280;10774;42.178;26.578;2023-04-26T11:26:03;98988.16;;;21.58;57.70
21234;BME280;10774;42.178;26.578;2023-04-26T11:28:30;98976.69;;;22.27;57.93
21234;BME280;10774;42.178;26.578;2023-04-26T11:30:56;98985.22;;;22.39;56.06
21234;BME280;10774;42.178;26.578;2023-04-26T11:33:21;98987.50;;;22.14;55.36
21234;BME280;10774;42.178;26.578;2023-04-26T11:35:51;98990.16;;;22.29;54.34
21234;BME280;10774;42.178;26.578;2023-04-26T11:38:21;98987.13;;;21.81;56.42
21234;BME280;10774;42.178;26.578;2023-04-26T11:41:00;98983.09;;;21.98;58.57
21234;BME280;10774;42.178;26.578;2023-04-26T11:43:44;98988.19;;;22.01;57.07
21234;BME280;10774;42.178;26.578;2023-04-26T11:46:09;98993.28;;;22.04;57.16
21234;BME280;10774;42.178;26.578;2023-04-26T11:48:36;98977.38;;;21.93;56.33
21234;BME280;10774;42.178;26.578;2023-04-26T11:51:03;98974.59;;;21.86;53.94
21234;BME280;10774;42.178;26.578;2023-04-26T11:53:36;98992.25;;;22.05;54.00
21234;BME280;10774;42.178;26.578;2023-04-26T11:56:03;98978.84;;;21.89;53.62
21234;BME280;10774;42.178;26.578;2023-04-26T11:58:29;98988.09;;;22.31;54.63
21234;BME280;10774;42.178;26.578;2023-04-26T12:00:59;98982.00;;;22.35;54.25
21234;BME280;10774;42.178;26.578;2023-04-26T12:03:35;98977.75;;;22.54;56.57
21234;BME280;10774;42.178;26.578;2023-04-26T12:06:04;98976.22;;;22.73;56.68
21234;BME280;10774;42.178;26.578;2023-04-26T12:08:31;98973.84;;;22.91;57.18
21234;BME280;10774;42.178;26.578;2023-04-26T12:10:59;98967.28;;;23.20;56.73
21234;BME280;10774;42.178;26.578;2023-04-26T12:13:25;98966.13;;;23.08;55.83
21234;BME280;10774;42.178;26.578;2023-04-26T12:15:51;98970.97;;;23.47;55.89
21234;BME280;10774;42.178;26.578;2023-04-26T12:18:17;98952.63;;;23.00;55.55
21234;BME280;10774;42.178;26.578;2023-04-26T12:20:43;98962.59;;;23.14;54.55
21234;BME280;10774;42.178;26.578;2023-04-26T12:23:15;98946.69;;;23.31;54.08
21234;BME280;10774;42.178;26.578;2023-04-26T12:25:50;98963.56;;;23.41;53.48
21234;BME280;10774;42.178;26.578;2023-04-26T12:28:16;98957.22;;;23.41;52.41
21234;BME280;10774;42.178;26.578;2023-04-26T12:30:42;98954.22;;;23.22;52.16
21234;BME280;10774;42.178;26.578;2023-04-26T12:33:07;98954.38;;;23.14;53.09
21234;BME280;10774;42.178;26.578;2023-04-26T12:35:33;98951.34;;;23.37;51.69
21234;BME280;10774;42.178;26.578;2023-04-26T12:37:59;98952.91;;;23.66;51.19
21234;BME280;10774;42.178;26.578;2023-04-26T12:40:28;98954.31;;;23.49;52.08
21234;BME280;10774;42.178;26.578;2023-04-26T12:42:54;98943.72;;;23.33;53.15
21234;BME280;10774;42.178;26.578;2023-04-26T12:45:21;98940.16;;;23.39;52.16
21234;BME280;10774;42.178;26.578;2023-04-26T12:47:48;98952.53;;;23.28;51.83
21234;BME280;10774;42.178;26.578;2023-04-26T12:50:14;98955.16;;;23.49;51.70
21234;BME280;10774;42.178;26.578;2023-04-26T12:52:41;98938.44;;;23.99;50.82
21234;BME280;10774;42.178;26.578;2023-04-26T12:55:08;98940.63;;;24.37;49.75
21234;BME280;10774;42.178;26.578;2023-04-26T12:57:38;98936.06;;;24.89;48.58
21234;BME280;10774;42.178;26.578;2023-04-26T13:00:05;98937.38;;;24.73;47.91
21234;BME280;10774;42.178;26.578;2023-04-26T13:02:31;98902.75;;;24.72;47.89
21234;BME280;10774;42.178;26.578;2023-04-26T13:04:57;98925.16;;;25.40;46.84